createdAt,value
2022-12-12T00:01:23.570Z,88.34
2022-12-12T00:03:52.435Z,87.41
2022-12-12T00:06:23.362Z,88.17
2022-12-12T00:08:52.128Z,88.44
2022-12-12T00:11:20.654Z,89.54
2022-12-12T00:13:48.942Z,89.72
2022-12-12T00:16:17.405Z,90.30
2022-12-12T00:18:45.439Z,90.77
2022-12-12T00:21:17.017Z,91.68
2022-12-12T00:23:46.818Z,91.25
2022-12-12T00:26:18.962Z,91.54
2022-12-12T00:28:47.411Z,91.47
2022-12-12T00:31:16.239Z,89.56
2022-12-12T00:33:45.028Z,89.89
2022-12-12T00:36:13.076Z,89.41
2022-12-12T00:38:41.619Z,90.95
2022-12-12T00:41:11.035Z,90.08
2022-12-12T00:43:39.124Z,90.22
2022-12-12T00:46:07.683Z,90.17
2022-12-12T00:48:35.806Z,91.63
2022-12-12T00:51:09.057Z,91.21
2022-12-12T00:53:37.386Z,90.99
2022-12-12T00:56:05.954Z,88.62
2022-12-12T00:58:35.794Z,89.89
2022-12-12T01:01:10.608Z,88.57
2022-12-12T01:03:40.726Z,89.23
2022-12-12T01:06:09.208Z,89.30
2022-12-12T01:08:37.570Z,90.06
2022-12-12T01:11:06.398Z,90.38
2022-12-12T01:13:36.542Z,88.46
2022-12-12T01:16:05.706Z,89.53
2022-12-12T01:18:34.065Z,90.96
2022-12-12T01:21:02.176Z,89.75
2022-12-12T01:23:30.417Z,89.66
2022-12-12T01:26:02.778Z,91.17
2022-12-12T01:28:30.888Z,91.08
2022-12-12T01:31:00.356Z,91.45
2022-12-12T01:33:28.426Z,91.09
2022-12-12T01:35:56.884Z,90.94
2022-12-12T01:38:25.302Z,91.72
2022-12-12T01:40:53.791Z,91.89
2022-12-12T01:43:23.999Z,91.85
2022-12-12T01:46:46.119Z,91.29
2022-12-12T01:49:20.105Z,90.23
2022-12-12T01:51:49.480Z,92.41
2022-12-12T01:54:23.208Z,93.93
2022-12-12T01:56:52.787Z,93.02
2022-12-12T01:59:23.691Z,93.83
2022-12-12T02:01:53.316Z,93.29
2022-12-12T02:04:23.811Z,93.83
2022-12-12T02:06:53.354Z,94.53
2022-12-12T02:09:22.938Z,94.73
2022-12-12T02:11:53.082Z,94.28
2022-12-12T02:14:25.416Z,94.64
2022-12-12T02:17:17.216Z,93.73
2022-12-12T02:20:39.987Z,93.42
2022-12-12T02:23:39.575Z,92.44
2022-12-12T02:26:36.036Z,93.07
2022-12-12T02:29:30.267Z,91.92
2022-12-12T02:32:07.655Z,91.08
2022-12-12T02:34:43.361Z,92.10
2022-12-12T02:37:20.434Z,91.45
2022-12-12T02:39:55.640Z,90.90
2022-12-12T02:42:32.670Z,90.72
2022-12-12T02:45:07.247Z,90.37
2022-12-12T02:47:44.426Z,91.29
2022-12-12T02:50:17.143Z,92.47
2022-12-12T02:52:46.733Z,91.89
2022-12-12T02:55:15.220Z,92.44
2022-12-12T02:57:43.812Z,90.91
2022-12-12T03:00:14.634Z,92.15
2022-12-12T03:03:25.528Z,91.82
2022-12-12T03:06:27.043Z,91.28
2022-12-12T03:09:06.238Z,91.88
2022-12-12T03:11:46.666Z,91.65
2022-12-12T03:14:24.823Z,92.09
2022-12-12T03:17:02.297Z,92.50
2022-12-12T03:19:40.364Z,91.09
2022-12-12T03:22:13.341Z,91.63
2022-12-12T03:24:49.840Z,91.62
2022-12-12T03:27:23.442Z,91.22
2022-12-12T03:29:57.739Z,91.94
2022-12-12T03:32:30.525Z,93.17
2022-12-12T03:35:04.337Z,92.38
2022-12-12T03:37:36.081Z,92.53
2022-12-12T03:40:10.093Z,92.00
2022-12-12T03:42:44.478Z,92.53
2022-12-12T03:45:17.784Z,92.30
2022-12-12T03:47:54.581Z,91.81
2022-12-12T03:50:28.347Z,92.48
2022-12-12T03:53:00.580Z,93.76
2022-12-12T03:55:36.187Z,93.90
2022-12-12T03:58:11.465Z,93.15
2022-12-12T04:00:40.706Z,93.79
2022-12-12T04:03:16.777Z,92.86
2022-12-12T04:06:20.197Z,93.09
2022-12-12T04:09:02.945Z,93.20
2022-12-12T04:12:00.260Z,92.76
2022-12-12T04:14:54.114Z,93.00
2022-12-12T04:17:30.835Z,93.70
2022-12-12T04:20:21.975Z,92.41
2022-12-12T04:23:16.952Z,91.94
2022-12-12T04:26:19.030Z,91.87
2022-12-12T04:28:56.676Z,92.02
2022-12-12T04:31:27.884Z,93.05
2022-12-12T04:34:02.414Z,91.48
2022-12-12T04:36:33.203Z,91.14
2022-12-12T04:39:04.723Z,90.86
2022-12-12T04:41:35.833Z,92.16
2022-12-12T04:44:07.298Z,93.14
2022-12-12T04:46:35.511Z,91.66
2022-12-12T04:49:08.134Z,91.75
2022-12-12T04:51:42.253Z,93.27
2022-12-12T04:54:17.625Z,93.08
2022-12-12T04:56:50.291Z,91.59
2022-12-12T04:59:18.480Z,92.68
2022-12-12T05:01:53.763Z,93.28
2022-12-12T05:04:28.687Z,92.38
2022-12-12T05:07:02.770Z,93.29
2022-12-12T05:09:32.516Z,93.21
2022-12-12T05:12:00.603Z,93.02
2022-12-12T05:14:28.858Z,92.80
2022-12-12T05:17:03.118Z,93.69
2022-12-12T05:19:31.243Z,92.44
2022-12-12T05:21:59.338Z,91.20
2022-12-12T05:24:30.863Z,90.12
2022-12-12T05:27:00.430Z,90.42
2022-12-12T05:29:28.578Z,92.18
2022-12-12T05:31:56.552Z,90.51
2022-12-12T05:34:24.674Z,90.68
2022-12-12T05:36:52.826Z,91.70
2022-12-12T05:39:21.149Z,91.65
2022-12-12T05:41:49.378Z,92.61
2022-12-12T05:44:18.743Z,92.43
2022-12-12T05:46:46.751Z,91.92
2022-12-12T05:49:14.826Z,92.59
2022-12-12T05:51:42.976Z,91.69
2022-12-12T05:54:11.027Z,90.84
2022-12-12T05:56:39.122Z,90.33
2022-12-12T05:59:07.215Z,91.68
2022-12-12T06:01:36.588Z,91.89
2022-12-12T06:04:04.649Z,91.32
2022-12-12T06:06:32.781Z,91.68
2022-12-12T06:09:00.908Z,90.21
2022-12-12T06:11:28.914Z,92.12
2022-12-12T06:13:56.921Z,91.53
2022-12-12T06:16:25.078Z,90.89
2022-12-12T06:18:55.232Z,89.89
2022-12-12T06:21:23.277Z,90.48
2022-12-12T06:23:51.456Z,91.73
2022-12-12T06:26:21.337Z,90.81
2022-12-12T06:28:50.185Z,91.30
2022-12-12T06:31:19.243Z,90.25
2022-12-12T06:33:47.400Z,90.80
2022-12-12T06:36:24.158Z,89.66
2022-12-12T06:38:53.173Z,89.82
2022-12-12T06:41:22.025Z,90.77
2022-12-12T06:43:50.581Z,93.06
2022-12-12T06:46:24.343Z,92.87
2022-12-12T06:48:54.017Z,89.45
2022-12-12T06:51:25.020Z,90.78
2022-12-12T06:53:53.074Z,89.60
2022-12-12T06:56:23.503Z,90.38
2022-12-12T06:58:52.095Z,88.34
2022-12-12T07:01:21.826Z,88.77
2022-12-12T07:03:51.830Z,87.24
2022-12-12T07:06:22.733Z,89.51
2022-12-12T07:08:53.021Z,89.82
2022-12-12T07:11:22.550Z,90.66
2022-12-12T07:13:51.226Z,89.76
2022-12-12T07:16:20.007Z,88.68
2022-12-12T07:18:48.435Z,88.83
2022-12-12T07:21:18.347Z,89.66
2022-12-12T07:23:46.767Z,91.95
2022-12-12T07:26:18.877Z,91.12
2022-12-12T07:28:47.007Z,90.61
2022-12-12T07:31:16.599Z,89.62
2022-12-12T07:33:44.958Z,90.53
2022-12-12T07:36:14.965Z,90.08
2022-12-12T07:38:43.430Z,91.40
2022-12-12T07:41:14.084Z,90.75
2022-12-12T07:43:45.892Z,89.56
2022-12-12T07:46:17.083Z,90.71
2022-12-12T07:48:45.801Z,91.59
2022-12-12T07:51:14.387Z,90.81
2022-12-12T07:53:43.252Z,90.28
2022-12-12T07:56:13.801Z,91.22
2022-12-12T07:58:43.338Z,90.47
2022-12-12T08:01:14.984Z,89.56
2022-12-12T08:03:43.802Z,91.28
2022-12-12T08:06:12.628Z,90.84
2022-12-12T08:08:40.631Z,92.06
2022-12-12T08:11:10.415Z,91.10
2022-12-12T08:13:39.677Z,92.12
2022-12-12T08:16:14.825Z,92.03
2022-12-12T08:18:42.962Z,91.04
2022-12-12T08:21:12.531Z,91.32
2022-12-12T08:23:41.052Z,90.68
2022-12-12T08:26:10.321Z,89.95
2022-12-12T08:28:39.311Z,89.94
2022-12-12T08:31:09.071Z,90.01
2022-12-12T08:33:37.071Z,90.18
2022-12-12T08:36:13.364Z,88.75
2022-12-12T08:38:41.387Z,89.77
2022-12-12T08:41:10.010Z,91.69
2022-12-12T08:43:38.130Z,90.60
2022-12-12T08:46:13.738Z,90.00
2022-12-12T08:48:45.512Z,88.79
2022-12-12T08:51:14.063Z,89.90
2022-12-12T08:53:44.359Z,90.40
2022-12-12T08:56:12.407Z,91.17
2022-12-12T08:58:40.365Z,92.46
2022-12-12T09:01:13.117Z,92.07
2022-12-12T09:03:41.250Z,89.64
2022-12-12T09:06:10.332Z,90.63
2022-12-12T09:08:38.722Z,91.35
2022-12-12T09:11:07.228Z,91.13
2022-12-12T09:13:35.420Z,90.80
2022-12-12T09:16:03.446Z,90.99
2022-12-12T09:18:33.348Z,89.87
2022-12-12T09:21:01.378Z,89.72
2022-12-12T09:23:29.870Z,88.51
2022-12-12T09:25:57.925Z,88.57
2022-12-12T09:28:27.284Z,87.67
2022-12-12T09:30:55.373Z,89.14
2022-12-12T09:33:23.540Z,89.54
2022-12-12T09:36:00.325Z,86.74
2022-12-12T09:38:28.964Z,86.26
2022-12-12T09:41:00.932Z,84.71
2022-12-12T09:43:32.601Z,85.40
2022-12-12T09:46:01.954Z,87.78
2022-12-12T09:48:37.786Z,87.44
2022-12-12T09:51:07.359Z,87.84
2022-12-12T09:53:35.582Z,86.78
2022-12-12T09:56:11.075Z,88.49
2022-12-12T09:58:50.185Z,90.36
2022-12-12T10:01:27.024Z,88.07
2022-12-12T10:04:08.923Z,87.86
2022-12-12T10:06:45.032Z,87.56
2022-12-12T10:09:34.286Z,87.81
2022-12-12T10:12:08.387Z,87.42
2022-12-12T10:14:40.464Z,89.18
2022-12-12T10:17:15.725Z,87.94
2022-12-12T10:19:50.312Z,87.51
2022-12-12T10:22:30.201Z,87.04
2022-12-12T10:25:04.551Z,86.93
2022-12-12T10:27:32.680Z,88.24
2022-12-12T10:30:14.930Z,88.02
2022-12-12T10:32:54.011Z,88.61
2022-12-12T10:35:30.269Z,87.67
2022-12-12T10:38:12.930Z,88.58
2022-12-12T10:40:48.246Z,87.68
2022-12-12T10:43:22.440Z,87.69
2022-12-12T10:46:19.163Z,86.44
2022-12-12T10:48:49.180Z,85.51
2022-12-12T10:51:20.022Z,86.74
2022-12-12T10:53:49.579Z,88.17
2022-12-12T10:56:22.134Z,86.74
2022-12-12T10:58:55.979Z,85.49
2022-12-12T11:02:00.667Z,85.86
2022-12-12T11:04:17.458Z,88.31
2022-12-12T11:06:49.366Z,87.14
2022-12-12T11:09:23.154Z,88.32
2022-12-12T11:12:02.718Z,89.23
2022-12-12T11:14:35.623Z,88.55
2022-12-12T11:17:21.097Z,90.13
2022-12-12T11:19:49.260Z,89.48
2022-12-12T11:22:17.964Z,91.56
2022-12-12T11:24:50.228Z,90.70
2022-12-12T11:27:23.742Z,90.55
2022-12-12T11:29:55.922Z,90.56
2022-12-12T11:32:27.468Z,90.33
2022-12-12T11:34:58.967Z,91.15
2022-12-12T11:37:36.216Z,90.40
2022-12-12T11:40:07.270Z,92.34
2022-12-12T11:42:35.951Z,90.35
2022-12-12T11:45:06.337Z,90.43
2022-12-12T11:47:41.772Z,90.51
2022-12-12T11:50:22.254Z,91.00
2022-12-12T11:52:52.257Z,90.57
2022-12-12T11:55:29.546Z,90.31
2022-12-12T11:58:11.985Z,91.08
2022-12-12T12:00:47.104Z,89.56
2022-12-12T12:03:30.351Z,89.04
2022-12-12T12:06:23.716Z,90.43
2022-12-12T12:09:16.605Z,89.75
2022-12-12T12:11:56.196Z,90.69
2022-12-12T12:14:42.812Z,90.55
2022-12-12T12:17:20.195Z,91.11
2022-12-12T12:19:57.014Z,91.49
2022-12-12T12:22:38.231Z,91.60
2022-12-12T12:25:25.110Z,90.72
2022-12-12T12:28:07.681Z,91.35
2022-12-12T12:30:48.192Z,92.23
2022-12-12T12:33:39.872Z,92.43
2022-12-12T12:36:21.179Z,92.29
2022-12-12T12:39:05.743Z,92.42
2022-12-12T12:41:50.809Z,93.56
2022-12-12T12:44:38.609Z,94.07
2022-12-12T12:47:19.015Z,93.31
2022-12-12T12:49:52.347Z,92.57
2022-12-12T12:52:26.493Z,92.16
2022-12-12T12:54:57.149Z,92.55
2022-12-12T12:57:29.720Z,92.81
2022-12-12T13:00:01.261Z,92.74
2022-12-12T13:02:42.378Z,92.11
2022-12-12T13:05:16.101Z,93.53
2022-12-12T13:07:52.740Z,94.89
2022-12-12T13:10:24.023Z,93.85
2022-12-12T13:12:57.098Z,95.25
2022-12-12T13:15:32.068Z,94.56
2022-12-12T13:18:02.423Z,94.46
2022-12-12T13:20:36.072Z,94.08
2022-12-12T13:23:15.252Z,93.61
2022-12-12T13:25:53.306Z,94.17
2022-12-12T13:28:26.304Z,93.17
2022-12-12T13:31:13.488Z,92.99
2022-12-12T13:33:45.973Z,93.23
2022-12-12T13:36:23.125Z,92.20
2022-12-12T13:38:58.077Z,92.49
2022-12-12T13:41:26.159Z,91.77
2022-12-12T13:43:58.947Z,92.42
2022-12-12T13:46:41.052Z,92.86
2022-12-12T13:49:24.765Z,92.18
2022-12-12T13:51:53.507Z,92.01
2022-12-12T13:54:53.697Z,91.50
2022-12-12T13:57:28.497Z,93.08
2022-12-12T14:00:30.207Z,92.60
2022-12-12T14:03:07.296Z,90.90
2022-12-12T14:05:39.809Z,91.93
2022-12-12T14:08:21.607Z,91.10
2022-12-12T14:10:57.215Z,92.67
2022-12-12T14:13:38.877Z,92.27
2022-12-12T14:16:18.215Z,91.10
2022-12-12T14:19:03.383Z,91.53
2022-12-12T14:21:44.141Z,92.33
2022-12-12T14:24:48.410Z,92.23
2022-12-12T14:27:16.830Z,90.60
2022-12-12T14:29:45.920Z,91.96
2022-12-12T14:32:34.616Z,92.38
2022-12-12T14:35:20.411Z,91.47
2022-12-12T14:37:57.761Z,92.08
2022-12-12T14:40:30.545Z,93.48
2022-12-12T14:43:19.563Z,94.25
2022-12-12T14:45:56.800Z,93.53
2022-12-12T14:48:27.386Z,92.51
2022-12-12T14:51:10.330Z,92.87
2022-12-12T14:53:47.571Z,93.04
2022-12-12T14:56:17.633Z,93.31
2022-12-12T14:58:48.822Z,93.96
2022-12-12T15:01:20.060Z,94.15
2022-12-12T15:03:50.972Z,92.47
2022-12-12T15:06:35.145Z,91.85
2022-12-12T15:09:25.744Z,93.93
2022-12-12T15:11:55.844Z,94.92
2022-12-12T15:14:26.957Z,94.21
2022-12-12T15:17:01.435Z,94.78
2022-12-12T15:19:33.810Z,94.88
2022-12-12T15:22:03.539Z,95.10
2022-12-12T15:24:39.276Z,94.37
2022-12-12T15:27:08.112Z,93.51
2022-12-12T15:29:38.659Z,94.36
2022-12-12T15:32:10.048Z,93.58
2022-12-12T15:34:41.460Z,94.15
2022-12-12T15:37:22.042Z,93.06
2022-12-12T15:40:17.666Z,94.25
2022-12-12T15:42:48.487Z,95.15
2022-12-12T15:45:20.995Z,94.85
2022-12-12T15:47:49.498Z,94.65
2022-12-12T15:50:20.938Z,95.25
2022-12-12T15:53:03.458Z,94.64
2022-12-12T15:55:31.931Z,93.30
2022-12-12T15:58:00.239Z,92.49
2022-12-12T16:00:38.312Z,92.41
2022-12-12T16:03:20.684Z,92.05
2022-12-12T16:06:04.242Z,92.28
2022-12-12T16:08:55.233Z,93.13
2022-12-12T16:11:39.573Z,94.34
2022-12-12T16:14:25.016Z,93.23
2022-12-12T16:16:57.240Z,93.17
2022-12-12T16:19:35.242Z,92.56
2022-12-12T16:22:06.139Z,92.64
2022-12-12T16:24:47.132Z,94.06
2022-12-12T16:27:15.301Z,93.15
2022-12-12T16:29:43.946Z,92.21
2022-12-12T16:32:15.399Z,91.36
2022-12-12T16:34:44.179Z,92.89
2022-12-12T16:37:17.218Z,92.74
2022-12-12T16:39:47.299Z,91.94
2022-12-12T16:42:16.958Z,92.24
2022-12-12T16:44:45.493Z,92.87
2022-12-12T16:47:17.478Z,92.40
2022-12-12T16:49:45.761Z,92.78
2022-12-12T16:52:14.690Z,93.00
2022-12-12T16:54:46.868Z,92.23
2022-12-12T16:57:20.566Z,91.63
2022-12-12T16:59:48.638Z,91.51
2022-12-12T17:02:20.441Z,92.25
2022-12-12T17:04:49.546Z,91.27
2022-12-12T17:07:17.805Z,91.32
2022-12-12T17:09:45.995Z,94.22
2022-12-12T17:12:15.725Z,92.46
2022-12-12T17:14:45.282Z,92.78
2022-12-12T17:17:13.315Z,92.07
2022-12-12T17:19:42.539Z,92.45
2022-12-12T17:22:10.621Z,92.63
2022-12-12T17:24:38.604Z,92.52
2022-12-12T17:27:07.429Z,91.93
2022-12-12T17:29:35.513Z,92.38
2022-12-12T17:32:05.416Z,92.57
2022-12-12T17:34:33.416Z,92.14
2022-12-12T17:37:01.413Z,91.66
2022-12-12T17:39:29.455Z,94.10
2022-12-12T17:41:58.587Z,92.58
2022-12-12T17:44:26.763Z,92.07
2022-12-12T17:46:55.063Z,90.51
2022-12-12T17:49:24.455Z,91.75
2022-12-12T17:51:52.523Z,92.31
2022-12-12T17:54:20.725Z,94.40
2022-12-12T17:56:48.849Z,94.16
2022-12-12T17:59:16.883Z,94.41
2022-12-12T18:01:44.882Z,93.57
2022-12-12T18:04:13.018Z,91.88
2022-12-12T18:06:42.545Z,93.24
2022-12-12T18:09:10.535Z,92.82
2022-12-12T18:11:38.973Z,92.89
2022-12-12T18:14:09.013Z,93.28
2022-12-12T18:16:37.542Z,92.44
2022-12-12T18:19:05.849Z,93.89
2022-12-12T18:21:59.940Z,94.66
2022-12-12T18:24:29.336Z,95.15
2022-12-12T18:26:59.473Z,94.76
2022-12-12T18:29:28.450Z,94.31
2022-12-12T18:31:56.896Z,93.51
2022-12-12T18:34:25.897Z,92.72
2022-12-12T18:36:54.185Z,93.11
2022-12-12T18:39:22.198Z,93.57
2022-12-12T18:41:52.115Z,94.28
2022-12-12T18:44:20.425Z,93.85
2022-12-12T18:46:51.707Z,94.46
2022-12-12T18:49:20.049Z,94.25
2022-12-12T18:51:48.629Z,93.43
2022-12-12T18:54:17.544Z,92.53
2022-12-12T18:56:46.965Z,91.18
2022-12-12T18:59:17.617Z,92.70
2022-12-12T19:01:46.134Z,91.33
2022-12-12T19:04:20.863Z,90.30
2022-12-12T19:06:53.034Z,90.71
2022-12-12T19:09:22.115Z,91.60
2022-12-12T19:11:55.584Z,91.53
2022-12-12T19:17:25.786Z,91.37
2022-12-12T19:19:54.972Z,91.72
2022-12-12T19:22:44.413Z,92.58
2022-12-12T19:25:11.007Z,91.93
2022-12-12T19:27:39.070Z,91.41
2022-12-12T19:30:10.306Z,91.89
2022-12-12T19:32:38.516Z,92.49
2022-12-12T19:35:07.454Z,92.29
2022-12-12T19:37:37.263Z,92.35
2022-12-12T19:40:06.010Z,91.99
2022-12-12T19:42:33.963Z,92.99
2022-12-12T19:45:01.982Z,92.38
2022-12-12T19:47:31.349Z,91.99
2022-12-12T19:50:00.296Z,92.09
2022-12-12T19:52:28.471Z,92.36
2022-12-12T19:54:56.435Z,92.89
2022-12-12T19:57:26.382Z,93.65
2022-12-12T19:59:54.453Z,94.01
2022-12-12T20:02:22.467Z,94.67
2022-12-12T20:04:51.881Z,93.04
2022-12-12T20:07:19.878Z,94.43
2022-12-12T20:09:47.956Z,93.44
2022-12-12T20:12:15.939Z,92.05
2022-12-12T20:14:43.973Z,91.87
2022-12-12T20:17:12.200Z,91.77
2022-12-12T20:19:40.303Z,90.63
2022-12-12T20:22:10.750Z,89.90
2022-12-12T20:24:39.905Z,89.78
2022-12-12T20:27:08.995Z,89.14
2022-12-12T20:29:37.126Z,89.95
2022-12-12T20:32:05.592Z,88.07
2022-12-12T20:34:33.573Z,86.59
2022-12-12T20:37:01.571Z,84.89
2022-12-12T20:39:31.785Z,84.78
2022-12-12T20:41:59.787Z,85.64
2022-12-12T20:44:29.229Z,85.35
2022-12-12T20:46:58.871Z,83.38
2022-12-12T20:49:28.900Z,83.76
2022-12-12T20:51:58.613Z,84.06
2022-12-12T20:54:28.414Z,84.56
2022-12-12T20:56:59.747Z,84.60
2022-12-12T20:59:28.823Z,84.63
2022-12-12T21:01:56.987Z,85.48
2022-12-12T21:04:25.014Z,87.14
2022-12-12T21:06:52.993Z,87.57
2022-12-12T21:09:26.514Z,88.14
2022-12-12T21:11:56.155Z,88.28
2022-12-12T21:14:25.557Z,88.29
2022-12-12T21:16:53.797Z,88.02
2022-12-12T21:19:23.489Z,89.11
2022-12-12T21:21:51.966Z,89.45
2022-12-12T21:24:20.561Z,89.63
2022-12-12T21:26:49.115Z,90.02
2022-12-12T21:29:17.511Z,89.08
2022-12-12T21:31:51.461Z,90.09
2022-12-12T21:34:22.368Z,88.79
2022-12-12T21:36:54.398Z,90.28
2022-12-12T21:39:23.341Z,90.14
2022-12-12T21:41:51.738Z,88.94
2022-12-12T21:44:20.595Z,89.14
2022-12-12T21:46:50.263Z,89.03
2022-12-12T21:49:26.522Z,90.09
2022-12-12T21:51:56.082Z,89.46
2022-12-12T21:54:24.576Z,90.11
2022-12-12T21:56:52.939Z,90.78
2022-12-12T21:59:21.029Z,91.11
2022-12-12T22:01:50.454Z,90.71
2022-12-12T22:04:18.521Z,91.34
2022-12-12T22:06:47.257Z,91.47
2022-12-12T22:09:15.319Z,89.81
2022-12-12T22:11:50.005Z,88.94
2022-12-12T22:14:21.460Z,90.10
2022-12-12T22:16:51.198Z,89.29
2022-12-12T22:19:19.315Z,90.30
2022-12-12T22:21:48.484Z,91.21
2022-12-12T22:24:16.972Z,90.48
2022-12-12T22:26:47.096Z,91.80
2022-12-12T22:29:17.699Z,91.15
2022-12-12T22:31:46.577Z,90.68
2022-12-12T22:34:17.947Z,90.51
2022-12-12T22:36:46.753Z,90.46
2022-12-12T22:39:17.051Z,89.08
2022-12-12T22:41:45.704Z,90.40
2022-12-12T22:44:17.038Z,89.96
2022-12-12T22:46:45.771Z,91.08
2022-12-12T22:49:20.592Z,90.68
2022-12-12T22:51:49.285Z,89.72
2022-12-12T22:54:17.558Z,89.27
2022-12-12T22:56:46.089Z,89.83
2022-12-12T22:59:15.419Z,89.90
2022-12-12T23:01:44.080Z,89.96
2022-12-12T23:04:13.968Z,90.29
2022-12-12T23:06:44.329Z,90.51
2022-12-12T23:09:15.420Z,90.36
2022-12-12T23:11:44.243Z,90.79
2022-12-12T23:14:15.529Z,89.72
2022-12-12T23:16:44.578Z,90.93
2022-12-12T23:19:15.483Z,89.32
2022-12-12T23:21:45.415Z,89.38
2022-12-12T23:24:14.852Z,91.07
2022-12-12T23:26:43.727Z,90.58
2022-12-12T23:29:16.950Z,90.24
2022-12-12T23:31:45.458Z,89.20
2022-12-12T23:34:17.720Z,90.76
2022-12-12T23:36:47.814Z,89.08
2022-12-12T23:39:16.227Z,89.19
2022-12-12T23:41:45.133Z,90.33
2022-12-12T23:44:15.276Z,90.73
2022-12-12T23:46:44.308Z,91.54
2022-12-12T23:49:16.992Z,90.43
2022-12-12T23:51:48.052Z,90.53
2022-12-12T23:54:17.645Z,89.93
2022-12-12T23:56:46.317Z,89.89
2022-12-12T23:59:17.938Z,89.34
